NRT weather

Narita International Airport
Tokyo, Chiba Prefecture, Japan

Public forecast

Using degrees Celsius for public forecast. Weather courtesy of forecast.io.

METAR (pilot weather report)

Retrieved 2018/12/19 15:00 UTC (9 minutes ago):

RJAA 191500Z VRB02KT 9999 FEW040 03/M00 Q1015 NOSIG RMK 1SC040 A2999

TAF (pilot weather forecast)

Retrieved 2018/12/19 12:00 UTC (3 hours ago):

TAF RJAA 191105Z 1912/2018 26004KT 9999 FEW030 BECMG 2003/2006 21005KT BECMG 2009/2012 01005KT